Time;durP1;ratioP1;P1;durP2;ratioP2;P2;SDS_P1;SDS_P2;PMS_P1;PMS_P2;Temp;Humidity;BMP_temperature;BMP_pressure;BME280_temperature;BME280_humidity;BME280_pressure;Samples;Min_cycle;Max_cycle;Signal;HPM_P1;HPM_P2
2022/12/20 00:08:44;;;;;;;2.90;2.23;;;;;;;;;;20824181;28;20210;-66
2022/12/20 00:18:46;;;;;;;3.17;1.80;;;;;;;;;;20834333;28;20269;-66
2022/12/20 00:28:48;;;;;;;5.63;2.67;;;;;;;;;;20821866;28;20320;-66
2022/12/20 00:38:51;;;;;;;3.00;2.70;;;0.30;99.90;;;;;;20822585;28;20261;-67
2022/12/20 00:48:54;;;;;;;2.83;2.63;;;0.40;99.90;;;;;;20802643;28;20256;-67
2022/12/20 00:58:58;;;;;;;3.20;2.37;;;;;;;;;;20787677;28;20210;-67
2022/12/20 01:09:00;;;;;;;3.20;2.40;;;;;;;;;;20832444;28;20268;-67
2022/12/20 01:19:04;;;;;;;2.80;2.43;;;;;;;;;;20810023;28;20221;-67
2022/12/20 01:29:06;;;;;;;4.83;3.07;;;;;;;;;;20802048;28;20284;-67
2022/12/20 01:39:11;;;;;;;2.30;1.80;;;;;;;;;;20800248;28;20264;-66
2022/12/20 01:49:16;;;;;;;3.27;2.63;;;;;;;;;;20817622;28;20253;-67
2022/12/20 01:59:18;;;;;;;3.63;3.27;;;;;;;;;;20809340;28;20269;-67
2022/12/20 02:09:20;;;;;;;4.33;3.07;;;;;;;;;;20817234;28;20565;-66
2022/12/20 02:19:43;;;;;;;3.77;2.87;;;0.50;99.90;;;;;;20816461;28;20218;-67
2022/12/20 02:30:23;;;;;;;3.93;2.87;;;0.30;99.90;;;;;;20815186;28;20222;-66
2022/12/20 02:40:30;;;;;;;3.80;3.37;;;0.50;99.90;;;;;;20813986;28;20312;-66
2022/12/20 02:50:42;;;;;;;4.50;3.43;;;0.50;99.90;;;;;;20797805;28;20621;-66
2022/12/20 03:00:45;;;;;;;3.43;2.63;;;;;;;;;;20812683;28;20283;-67
2022/12/20 03:10:47;;;;;;;5.13;2.63;;;;;;;;;;20810536;28;20226;-68
2022/12/20 03:20:49;;;;;;;3.37;2.50;;;;;;;;;;20811765;28;20265;-66
2022/12/20 03:30:51;;;;;;;4.13;3.00;;;;;;;;;;20828834;28;20289;-66
2022/12/20 03:40:53;;;;;;;3.97;2.93;;;;;;;;;;20827915;28;20227;-66
2022/12/20 03:50:57;;;;;;;2.70;1.90;;;;;;;;;;20792776;28;20233;-66
2022/12/20 04:00:58;;;;;;;2.40;1.87;;;;;;;;;;20827295;28;20237;-66
2022/12/20 04:11:19;;;;;;;3.37;2.60;;;;;;;;;;20809543;28;20307;-67
2022/12/20 04:21:38;;;;;;;3.90;2.30;;;;;;;;;;20813936;28;20218;-67
2022/12/20 04:31:40;;;;;;;2.53;2.30;;;;;;;;;;20795211;28;20227;-66
2022/12/20 04:41:42;;;;;;;2.83;2.07;;;;;;;;;;20803905;28;20222;-69
2022/12/20 04:51:47;;;;;;;2.63;2.40;;;;;;;;;;20804410;28;20242;-66
2022/12/20 05:01:52;;;;;;;2.90;1.90;;;;;;;;;;20803948;28;20242;-66
2022/12/20 05:12:11;;;;;;;2.77;2.43;;;;;;;;;;20803393;28;20202;-68
2022/12/20 05:32:40;;;;;;;2.90;2.27;;;;;;;;;;20867193;23;20265;-67
2022/12/20 05:42:43;;;;;;;3.40;2.57;;;;;;;;;;20806926;28;20265;-67
2022/12/20 05:52:46;;;;;;;3.17;2.30;;;;;;;;;;20794927;28;20252;-67
2022/12/20 06:02:52;;;;;;;3.00;1.90;;;;;;;;;;20788196;28;20223;-67
2022/12/20 06:12:55;;;;;;;2.27;2.03;;;;;;;;;;20787993;28;20256;-67
2022/12/20 06:22:59;;;;;;;2.17;1.97;;;;;;;;;;20794923;28;20222;-67
2022/12/20 06:33:08;;;;;;;4.33;3.10;;;;;;;;;;20801516;28;20292;-67
2022/12/20 06:43:10;;;;;;;1.90;1.60;;;;;;;;;;20790837;28;20222;-67
2022/12/20 06:53:12;;;;;;;2.53;1.63;;;;;;;;;;20817563;28;20261;-67
2022/12/20 07:03:15;;;;;;;2.13;1.90;;;;;;;;;;20800821;28;20283;-67
2022/12/20 07:13:16;;;;;;;2.37;2.00;;;;;;;;;;20799862;28;20215;-67
2022/12/20 07:23:18;;;;;;;3.17;2.20;;;;;;;;;;20798812;28;20291;-67
2022/12/20 07:33:21;;;;;;;3.93;2.33;;;;;;;;;;20813663;28;20259;-67
2022/12/20 07:43:23;;;;;;;4.83;2.40;;;;;;;;;;20814160;28;20215;-67
2022/12/20 07:53:26;;;;;;;3.33;1.90;;;1.60;99.90;;;;;;20800832;28;20748;-67
2022/12/20 08:03:35;;;;;;;5.10;2.10;;;1.50;99.90;;;;;;20818935;28;20238;-67
2022/12/20 08:13:38;;;;;;;1.60;1.30;;;;;;;;;;20806942;28;20234;-67
2022/12/20 08:23:40;;;;;;;1.97;1.43;;;;;;;;;;20793354;28;20771;-67
2022/12/20 08:33:42;;;;;;;3.53;2.20;;;;;;;;;;20774158;28;20713;-67
2022/12/20 08:43:44;;;;;;;2.60;1.93;;;;;;;;;;20792915;28;20226;-67
2022/12/20 08:53:46;;;;;;;3.70;2.47;;;;;;;;;;20770355;28;20685;-68
2022/12/20 09:03:48;;;;;;;1.13;1.03;;;2.00;99.90;;;;;;20775162;28;20226;-68
2022/12/20 09:13:50;;;;;;;1.83;1.63;;;;;;;;;;20816474;28;20234;-67
2022/12/20 09:23:53;;;;;;;2.13;1.63;;;2.50;99.90;;;;;;20713788;28;20275;-68
2022/12/20 09:33:57;;;;;;;1.97;1.67;;;2.60;99.90;;;;;;20815137;28;20230;-67
2022/12/20 09:44:03;;;;;;;2.60;2.33;;;;;;;;;;20793130;28;20257;-67
2022/12/20 09:54:16;;;;;;;2.17;1.30;;;3.00;99.90;;;;;;20770799;28;20202;-67
2022/12/20 10:04:25;;;;;;;2.33;1.50;;;;;;;;;;20801496;28;20291;-67
2022/12/20 10:14:26;;;;;;;5.57;1.77;;;;;;;;;;20785602;28;20218;-68
2022/12/20 10:24:32;;;;;;;1.47;1.37;;;;;;;;;;20800973;28;20299;-68
2022/12/20 10:34:34;;;;;;;2.60;1.20;;;;;;;;;;20800583;28;20218;-68
2022/12/20 10:44:37;;;;;;;8.00;4.53;;;;;;;;;;20815320;28;20234;-68
2022/12/20 10:54:44;;;;;;;2.27;1.47;;;;;;;;;;20815401;28;20641;-68
2022/12/20 11:05:14;;;;;;;1.10;0.80;;;3.50;99.90;;;;;;20798323;28;20219;-68
2022/12/20 11:15:28;;;;;;;3.03;1.83;;;3.50;99.90;;;;;;20824532;28;20556;-68
2022/12/20 11:25:33;;;;;;;1.67;1.20;;;;;;;;;;20797723;28;20309;-68
2022/12/20 11:35:49;;;;;;;3.60;2.10;;;;;;;;;;20794143;28;20230;-68
2022/12/20 11:46:28;;;;;;;1.83;1.30;;;3.70;99.90;;;;;;20850764;22;20513;-69
2022/12/20 11:56:36;;;;;;;2.30;1.23;;;;;;;;;;20965171;28;20201;-70
2022/12/20 12:06:49;;;;;;;2.30;1.33;;;;;;;;;;20935236;28;20216;-70
2022/12/20 12:16:53;;;;;;;1.33;1.03;;;;;;;;;;20956999;28;20209;-70
2022/12/20 12:26:57;;;;;;;1.97;1.37;;;;;;;;;;20970728;28;20237;-69
2022/12/20 12:37:23;;;;;;;0.97;0.70;;;4.20;99.90;;;;;;20971091;28;20209;-70
2022/12/20 12:47:44;;;;;;;8.13;1.87;;;4.40;99.90;;;;;;20985121;28;20757;-70
2022/12/20 12:58:11;;;;;;;2.57;1.30;;;4.60;99.90;;;;;;20985341;28;20259;-68
2022/12/20 13:08:16;;;;;;;2.10;1.30;;;;;;;;;;20985066;28;20278;-69
2022/12/20 13:18:22;;;;;;;3.80;1.50;;;;;;;;;;20963878;28;20346;-70
2022/12/20 13:28:24;;;;;;;2.83;1.53;;;;;;;;;;20985098;28;20628;-70
2022/12/20 13:38:45;;;;;;;2.57;1.57;;;;;;;;;;20983982;28;20350;-70
2022/12/20 13:48:47;;;;;;;1.57;1.33;;;;;;;;;;20981634;28;20248;-70
2022/12/20 13:58:48;;;;;;;1.93;1.37;;;;;;;;;;20983843;28;20197;-70
2022/12/20 14:08:51;;;;;;;2.93;1.90;;;4.70;99.90;;;;;;20982230;28;20278;-70
2022/12/20 14:18:56;;;;;;;2.10;1.20;;;;;;;;;;20981972;28;20255;-70
2022/12/20 14:29:00;;;;;;;2.07;1.20;;;4.90;99.90;;;;;;20982923;28;20217;-70
2022/12/20 14:39:21;;;;;;;6.50;1.87;;;;;;;;;;20982356;28;20193;-70
2022/12/20 14:49:25;;;;;;;2.20;1.23;;;;;;;;;;20967221;28;20221;-73
2022/12/20 14:59:28;;;;;;;4.57;1.50;;;5.00;99.90;;;;;;20934655;28;20592;-70
2022/12/20 15:09:30;;;;;;;2.80;1.80;;;;;;;;;;20951752;28;20217;-68
2022/12/20 15:19:32;;;;;;;2.80;1.30;;;;;;;;;;20976642;28;20286;-72
2022/12/20 15:29:34;;;;;;;3.43;1.63;;;;;;;;;;20973086;28;20213;-70
2022/12/20 15:39:37;;;;;;;3.80;2.40;;;;;;;;;;20931085;28;20699;-73
2022/12/20 15:49:38;;;;;;;3.07;1.77;;;;;;;;;;20933415;28;20226;-69
2022/12/20 15:59:41;;;;;;;1.93;1.53;;;;;;;;;;20941827;28;20291;-69
2022/12/20 16:09:43;;;;;;;2.63;1.67;;;;;;;;;;20954706;28;20206;-69
2022/12/20 16:19:45;;;;;;;1.60;1.20;;;4.70;99.90;;;;;;20976924;28;20221;-69
2022/12/20 16:29:46;;;;;;;3.00;2.37;;;;;;;;;;20933618;28;20202;-68
2022/12/20 16:39:48;;;;;;;2.17;1.60;;;;;;;;;;20906090;28;20213;-68
2022/12/20 16:49:50;;;;;;;3.03;2.03;;;;;;;;;;20913326;28;20222;-68
2022/12/20 16:59:52;;;;;;;2.70;1.93;;;;;;;;;;20838270;28;20306;-69
2022/12/20 17:09:54;;;;;;;3.57;2.07;;;;;;;;;;20903323;28;20226;-69
2022/12/20 17:19:56;;;;;;;2.97;1.87;;;;;;;;;;20903875;28;20217;-69
2022/12/20 17:29:58;;;;;;;3.40;1.60;;;;;;;;;;20902969;28;20622;-68
2022/12/20 17:39:59;;;;;;;2.27;1.53;;;;;;;;;;20884281;28;20592;-69
2022/12/20 17:50:01;;;;;;;5.10;1.27;;;;;;;;;;20988368;22;20244;-67
2022/12/20 18:00:03;;;;;;;2.20;1.20;;;;;;;;;;21051480;28;20236;-67
2022/12/20 18:10:06;;;;;;;4.43;3.07;;;;;;;;;;21018956;28;20208;-67
2022/12/20 18:20:09;;;;;;;2.33;1.70;;;;;;;;;;21038664;28;20217;-68
2022/12/20 18:30:11;;;;;;;7.20;1.70;;;;;;;;;;21003108;28;20273;-67
2022/12/20 18:40:13;;;;;;;1.70;1.03;;;;;;;;;;21024932;28;20216;-66
2022/12/20 18:50:15;;;;;;;2.40;1.63;;;;;;;;;;21033043;28;20223;-67
2022/12/20 19:00:17;;;;;;;3.20;1.70;;;;;;;;;;21032047;28;20220;-67
2022/12/20 19:10:19;;;;;;;3.00;1.77;;;;;;;;;;21064611;28;20200;-67
2022/12/20 19:20:22;;;;;;;1.87;1.17;;;;;;;;;;21062895;28;20232;-67
2022/12/20 19:30:23;;;;;;;2.00;1.30;;;;;;;;;;21029776;28;20691;-67
2022/12/20 19:40:26;;;;;;;1.57;0.97;;;;;;;;;;21029591;28;20651;-67
2022/12/20 19:50:29;;;;;;;2.33;1.47;;;;;;;;;;21044078;28;20262;-67
2022/12/20 20:00:31;;;;;;;2.80;1.30;;;;;;;;;;21027434;28;20274;-67
2022/12/20 20:10:33;;;;;;;2.10;1.10;;;;;;;;;;21026379;28;20258;-67
2022/12/20 20:20:39;;;;;;;2.20;1.37;;;;;;;;;;21041869;28;20233;-67
2022/12/20 20:30:43;;;;;;;1.90;1.37;;;5.50;99.90;;;;;;21040517;28;20220;-67
2022/12/20 20:40:45;;;;;;;3.60;1.40;;;;;;;;;;21024679;28;20212;-67
2022/12/20 20:50:47;;;;;;;2.53;1.37;;;;;;;;;;21039791;28;20293;-66
2022/12/20 21:00:50;;;;;;;2.57;1.73;;;;;;;;;;21038608;28;20237;-66
2022/12/20 21:10:53;;;;;;;2.30;1.60;;;;;;;;;;21022093;28;20228;-67
2022/12/20 21:20:55;;;;;;;2.60;1.37;;;;;;;;;;21005229;28;20232;-67
2022/12/20 21:31:02;;;;;;;2.47;1.60;;;5.50;99.90;;;;;;21037139;28;20239;-66
2022/12/20 21:41:07;;;;;;;6.03;3.37;;;;;;;;;;21035931;28;20394;-67
2022/12/20 21:51:11;;;;;;;3.87;2.10;;;5.50;99.90;;;;;;21034988;28;20715;-66
2022/12/20 22:01:14;;;;;;;2.80;2.07;;;;;;;;;;21034667;28;20285;-66
2022/12/20 22:11:17;;;;;;;2.27;1.33;;;5.60;99.90;;;;;;21018577;28;20296;-67
2022/12/20 22:21:24;;;;;;;2.83;1.67;;;5.60;99.90;;;;;;21051216;28;20265;-67
2022/12/20 22:31:27;;;;;;;2.93;1.80;;;5.80;99.90;;;;;;21055533;28;20663;-67
2022/12/20 22:41:31;;;;;;;4.73;3.23;;;;;;;;;;21088503;28;20732;-68
2022/12/20 22:51:36;;;;;;;6.00;3.87;;;;;;;;;;21118025;28;20220;-69
2022/12/20 23:01:39;;;;;;;6.10;3.20;;;5.60;99.90;;;;;;21093303;28;20227;-70
2022/12/20 23:32:24;;;;;;;2.20;1.33;;;6.00;99.90;;;;;;21131525;28;20203;-67
2022/12/20 23:42:26;;;;;;;1.67;1.23;;;;;;;;;;21144666;28;20718;-67
2022/12/20 23:52:28;;;;;;;1.80;1.33;;;;;;;;;;21095375;28;20220;-67
